Saint Marys, Pennsylvania
Current Conditions -  °F | °C
As of 1:53 PM on Friday 21 Nov 2014 (Local Time) from KDUJ Reporting Station
Overcast Overcast  
Wind Chill: 12°   Ceiling: 3200
Heat Index: 23°   Visibility: 10mi
Dew Point: 11°   Wind: 12mph
Humidity: 60%   Direction: 250°WSW
Pressure: 30.36"   Gusts: NA
Location:  41.43°N, 78.56°W
Report Text: KDUJ 211853Z AUTO 25010KT 10SM OVC032 M05/M12 A3036 RMK AO2 SLP310 T10501117
Loading
Personal Weather Stations






























Interactive Weather Map New forecast layout! Learn more

10-Day Weather Forecast

Advertisements
Track Severe Weather on mobile